Warren, PA

1:30 PM EDT on July 30, 2016 (GMT -0400)
North Warren | | Change Station

Elev 1276 ft 41.88 °N, 79.17 °W | Updated 12 seconds ago

Overcast
Overcast
72.0 °F
Feels Like 72.0 °F
N
2.1
Wind Variable Wind from East
Gusts 4.3 mph

Today
High -- | Low -- °F
--% Chance of Precip.
Yesterday
High -- | Low -- °F
Precip. -- in
Pressure 30.04 in
Visibility 10.0 miles
Clouds Mostly Cloudy 1000 ft
Overcast 7500 ft
Dew Point 72 °F
Humidity 99%
Rainfall 1.63 in
Snow Depth Not available.
6:09 AM 8:36 PM
Waning Crescent, 12% visible
METAR KJHW 301715Z AUTO 14009KT 10SM BKN010 OVC075 21/18 A3004 RMK AO1
Pressure 30.04 in
Visibility 10.0 miles
Clouds Mostly Cloudy 1000 ft
Overcast 7500 ft
Dew Point 72 °F
Humidity 99%
Rainfall 1.63 in
Snow Depth Not available.
6:09 AM 8:36 PM
Waning Crescent, 12% visible
METAR KJHW 301715Z AUTO 14009KT 10SM BKN010 OVC075 21/18 A3004 RMK AO1

10-Day Weather Forecast

Almanac

Astronomy

Jul. 30, 2016 Rise Set
Actual Time
Civil Twilight
Nautical Twilight
Astronomical Twilight
Moon
Length of Visible Light
Length of Day
Tomorrow will be .
, % of the Moon is Illuminated

Today's Extremes

State Highs State Lows

Community

WunderPhotos

Upload Photos

1,928,600 photos uploaded!

WunderBlog® & News

Nearby

Air Quality

  Air Quality AQ Index Pollutant
Not available.

Snow Depth

Station Depth Elevation

Earthquake Activity

City Distance Mag. Time & Date
Minimum magnitude displayed is 2.5.

Coastal Water Temperatures

Place Temperature

Stations

Nearby Weather Stations

Station Location Temp. Windchill Dew Point Humidity Wind Precip. Elev Updated Type
                   

Watches & Warnings

There are currently no watches in effect.